Time;durP1;ratioP1;P1;durP2;ratioP2;P2;SDS_P1;SDS_P2;PMS_P1;PMS_P2;Temp;Humidity;BMP_temperature;BMP_pressure;BME280_temperature;BME280_humidity;BME280_pressure;Samples;Min_cycle;Max_cycle;Signal;HPM_P1;HPM_P2
2022/01/04 00:01:02;;;;;;;3.83;2.53;;;;;;;8.30;61.23;98819.50;4971972;29;20180;-79
2022/01/04 00:03:35;;;;;;;3.80;2.13;;;;;;;8.45;60.99;98840.44;4954052;23;20216;-79
2022/01/04 00:06:13;;;;;;;3.03;1.90;;;;;;;8.45;60.88;98840.44;4924771;23;20230;-80
2022/01/04 00:08:47;;;;;;;3.70;2.23;;;;;;;8.55;61.24;98841.53;4914737;29;20250;-80
2022/01/04 00:13:46;;;;;;;2.73;1.90;;;;;;;8.53;61.17;98845.50;4938586;23;20264;-80
2022/01/04 00:16:22;;;;;;;2.83;2.00;;;;;;;8.51;61.72;98843.03;4920403;29;20537;-80
2022/01/04 00:18:49;;;;;;;1.93;1.70;;;;;;;8.42;61.60;98817.69;4921563;29;20233;-80
2022/01/04 00:21:19;;;;;;;2.67;2.00;;;;;;;8.41;61.88;98821.41;4936828;29;20320;-80
2022/01/04 00:23:53;;;;;;;2.67;1.80;;;;;;;8.45;62.33;98819.09;4919816;29;20229;-80
2022/01/04 00:26:42;;;;;;;2.67;2.00;;;;;;;8.34;62.60;98794.00;4969484;23;20237;-80
2022/01/04 00:29:17;;;;;;;3.00;1.70;;;;;;;8.37;62.61;98796.19;4940135;29;20228;-80
2022/01/04 00:31:44;;;;;;;4.33;2.10;;;;;;;8.34;62.19;98786.81;4940038;29;20244;-80
2022/01/04 00:34:14;;;;;;;2.80;1.70;;;;;;;8.42;61.60;98801.69;4960352;23;20280;-80
2022/01/04 00:36:43;;;;;;;2.23;1.73;;;;;;;8.40;60.64;98790.41;4905988;29;20190;-80
2022/01/04 00:39:11;;;;;;;2.27;1.60;;;;;;;8.48;60.12;98803.47;4921045;29;20208;-80
2022/01/04 00:41:38;;;;;;;3.10;1.93;;;;;;;8.43;60.91;98795.31;4923783;23;20230;-80
2022/01/04 00:44:27;;;;;;;2.30;1.70;;;;;;;8.45;60.76;98787.88;4921313;23;20285;-80
2022/01/04 00:46:56;;;;;;;2.63;2.00;;;;;;;8.34;61.01;98762.78;4897014;29;20231;-80
2022/01/04 00:49:23;;;;;;;2.97;1.80;;;;;;;8.44;60.75;98791.59;4914678;29;20214;-80
2022/01/04 00:51:53;;;;;;;2.33;1.90;;;;;;;8.45;61.76;98787.06;4911566;29;20235;-80
2022/01/04 00:54:22;;;;;;;3.13;2.00;;;;;;;8.41;61.07;98776.03;4914263;29;20175;-80
2022/01/04 00:56:50;;;;;;;3.10;2.00;;;;;;;8.47;60.15;98769.78;4931847;23;20229;-81
2022/01/04 00:59:22;;;;;;;2.70;1.87;;;;;;;8.53;60.14;98765.41;4940810;23;20233;-80
2022/01/04 01:01:49;;;;;;;2.73;1.73;;;;;;;8.45;60.09;98763.84;4935680;29;20244;-80
2022/01/04 01:04:18;;;;;;;3.33;2.30;;;;;;;8.39;60.14;98751.44;4919359;29;20186;-80
2022/01/04 01:06:46;;;;;;;2.10;1.57;;;;;;;8.52;60.35;98761.09;4952402;29;20194;-80
2022/01/04 01:09:13;;;;;;;2.50;2.00;;;;;;;8.48;60.34;98747.41;4951013;29;20237;-80
2022/01/04 01:11:40;;;;;;;2.83;1.93;;;;;;;8.52;60.63;98751.25;4920314;29;20220;-80
2022/01/04 01:14:18;;;;;;;2.17;1.87;;;;;;;8.53;60.17;98749.38;4974933;23;20248;-80
2022/01/04 01:16:47;;;;;;;2.33;1.90;;;;;;;8.49;60.25;98738.31;4939693;23;20240;-80
2022/01/04 01:19:14;;;;;;;3.10;1.60;;;;;;;8.52;60.59;98737.06;4905319;29;20202;-80
2022/01/04 01:21:40;;;;;;;3.00;1.70;;;;;;;8.55;60.00;98737.41;4934632;23;20233;-80
2022/01/04 01:24:10;;;;;;;1.80;1.50;;;;;;;8.45;59.90;98726.47;4945190;23;20538;-80
2022/01/04 01:26:40;;;;;;;1.80;1.40;;;;;;;8.48;59.84;98726.03;4917934;29;20268;-80
2022/01/04 01:29:08;;;;;;;1.80;1.40;;;;;;;8.39;59.52;98706.88;4960651;23;20173;-80
2022/01/04 01:31:34;;;;;;;1.60;1.20;;;;;;;8.43;59.82;98712.56;4938297;29;20201;-80
2022/01/04 01:34:02;;;;;;;1.53;1.43;;;;;;;8.41;60.62;98690.59;4937277;29;20211;-80
2022/01/04 01:36:31;;;;;;;2.13;1.30;;;;;;;8.29;60.89;98693.25;4921851;29;20632;-80
2022/01/04 01:38:58;;;;;;;1.90;1.40;;;;;;;8.31;60.47;98691.16;4971252;29;20188;-80
2022/01/04 01:41:25;;;;;;;1.43;1.20;;;;;;;8.26;60.79;98699.00;4936796;29;20654;-80
2022/01/04 01:43:51;;;;;;;2.20;1.27;;;;;;;8.22;61.50;98702.34;4953384;29;20286;-80
2022/01/04 01:46:20;;;;;;;1.60;1.33;;;;;;;8.24;61.08;98689.59;4939142;29;20224;-81
2022/01/04 01:48:49;;;;;;;2.93;1.50;;;;;;;8.15;60.21;98677.63;4954774;29;20212;-80
2022/01/04 01:51:17;;;;;;;1.57;1.30;;;;;;;8.12;60.80;98667.41;4954251;23;20284;-80
2022/01/04 01:53:48;;;;;;;1.30;1.20;;;;;;;8.13;60.37;98669.03;4951758;29;20622;-80
2022/01/04 01:56:15;;;;;;;2.67;1.30;;;;;;;8.18;60.40;98671.81;4951385;29;20677;-80
2022/01/04 01:58:42;;;;;;;2.10;1.33;;;;;;;8.16;60.93;98668.59;4941032;23;20233;-80
2022/01/04 02:01:11;;;;;;;2.07;1.30;;;;;;;8.11;61.17;98665.78;4929527;23;20328;-80
2022/01/04 02:03:39;;;;;;;1.57;1.23;;;;;;;8.09;61.34;98658.00;4960241;23;20309;-81
2022/01/04 02:06:17;;;;;;;2.87;1.30;;;;;;;8.03;61.91;98666.91;4954235;29;20237;-80
2022/01/04 02:08:47;;;;;;;2.20;1.30;;;;;;;7.92;62.42;98665.03;4956284;29;20249;-81
2022/01/04 02:11:19;;;;;;;1.80;1.23;;;;;;;8.09;61.84;98668.66;4938601;29;20304;-80
2022/01/04 02:13:46;;;;;;;2.27;1.30;;;;;;;7.94;61.44;98642.41;4952378;29;20225;-80
2022/01/04 02:16:15;;;;;;;2.23;1.40;;;;;;;7.86;62.03;98642.72;4951526;29;20233;-79
2022/01/04 02:18:43;;;;;;;1.23;1.10;;;;;;;7.88;62.67;98653.19;4952491;29;20225;-80
2022/01/04 02:21:13;;;;;;;2.17;1.40;;;;;;;7.79;63.03;98651.88;4962903;23;20170;-80
2022/01/04 02:23:43;;;;;;;1.93;1.43;;;;;;;7.78;62.78;98642.22;4940174;29;20197;-80
2022/01/04 02:26:20;;;;;;;1.53;1.30;;;;;;;7.72;63.37;98645.78;4970589;23;20237;-80
2022/01/04 02:28:55;;;;;;;1.63;1.20;;;;;;;7.69;63.94;98638.25;4938976;29;20190;-81
2022/01/04 02:31:25;;;;;;;2.63;1.17;;;;;;;7.58;63.75;98625.66;4934701;29;20314;-80
2022/01/04 02:33:52;;;;;;;1.87;1.20;;;;;;;7.51;64.11;98609.78;4935966;29;20550;-80
2022/01/04 02:36:21;;;;;;;1.30;1.20;;;;;;;7.56;64.36;98607.22;4936448;29;20245;-80
2022/01/04 02:38:52;;;;;;;1.80;1.30;;;;;;;7.57;63.77;98610.72;4922945;29;20190;-80
2022/01/04 02:41:26;;;;;;;1.73;1.53;;;;;;;7.63;64.05;98607.16;4963131;23;20974;-80
2022/01/04 02:43:56;;;;;;;2.50;1.53;;;;;;;7.62;64.05;98601.00;4943506;23;20229;-80
2022/01/04 02:46:33;;;;;;;2.20;1.50;;;;;;;7.66;64.02;98586.19;4954217;23;20233;-80
2022/01/04 02:49:01;;;;;;;3.80;1.70;;;;;;;7.70;63.84;98589.22;4921475;29;20241;-80
2022/01/04 02:51:35;;;;;;;3.30;1.30;;;;;;;7.66;64.19;98566.69;4937162;29;20233;-80
2022/01/04 02:54:03;;;;;;;1.80;1.50;;;;;;;7.72;64.13;98568.47;4954489;29;20245;-79
2022/01/04 02:56:30;;;;;;;1.87;1.20;;;;;;;7.76;63.54;98561.63;4928780;29;20233;-80
2022/01/04 02:59:03;;;;;;;1.57;1.17;;;;;;;7.71;63.96;98565.00;4931036;23;20253;-80
2022/01/04 03:01:38;;;;;;;2.57;1.53;;;;;;;7.77;63.88;98565.94;4952814;29;20221;-80
2022/01/04 03:04:07;;;;;;;2.83;1.30;;;;;;;7.83;63.53;98576.53;4947136;23;20265;-79
2022/01/04 03:06:38;;;;;;;1.60;1.30;;;;;;;7.79;63.36;98569.22;4936806;29;20234;-81
2022/01/04 03:09:06;;;;;;;1.30;1.13;;;;;;;7.81;63.85;98575.91;4934947;23;20214;-81
2022/01/04 03:11:38;;;;;;;3.20;1.70;;;;;;;7.68;64.31;98556.63;4918442;29;20325;-80
2022/01/04 03:14:05;;;;;;;2.57;1.40;;;;;;;7.62;64.54;98550.34;4947890;23;20205;-80
2022/01/04 03:16:35;;;;;;;1.63;1.40;;;;;;;7.64;64.55;98555.47;4977911;23;20240;-80
2022/01/04 03:19:32;;;;;;;2.80;1.80;;;;;;;7.64;64.46;98568.78;4955926;29;20229;-80
2022/01/04 03:22:05;;;;;;;1.93;1.70;;;;;;;7.55;64.29;98557.66;4978487;23;20201;-80
2022/01/04 03:24:36;;;;;;;3.00;1.70;;;;;;;7.56;64.44;98563.78;4957266;29;20296;-80
2022/01/04 03:27:19;;;;;;;3.50;2.10;;;;;;;7.57;65.31;98554.72;4970392;29;20252;-80
2022/01/04 03:29:46;;;;;;;2.53;2.10;;;;;;;7.48;64.85;98538.25;4939933;29;20251;-80
2022/01/04 03:32:14;;;;;;;2.17;1.93;;;;;;;7.49;65.21;98534.56;4977599;23;20229;-80
2022/01/04 03:34:44;;;;;;;3.93;1.90;;;;;;;7.50;65.33;98539.66;4936616;29;20248;-80
2022/01/04 03:37:13;;;;;;;2.40;1.87;;;;;;;7.45;65.16;98514.72;4945507;23;20237;-80
2022/01/04 03:39:40;;;;;;;2.70;1.83;;;;;;;7.56;64.68;98529.13;4920564;23;20233;-80
2022/01/04 03:42:22;;;;;;;3.97;2.13;;;;;;;7.51;64.98;98516.50;4917550;29;20274;-80
2022/01/04 03:44:50;;;;;;;2.10;1.80;;;;;;;7.52;64.81;98510.91;4918807;29;20191;-80
2022/01/04 03:47:23;;;;;;;2.83;1.93;;;;;;;7.48;65.26;98503.59;4918170;29;20254;-80
2022/01/04 03:49:50;;;;;;;2.83;1.90;;;;;;;7.45;64.96;98491.56;4917299;29;20250;-80
2022/01/04 03:52:18;;;;;;;2.87;2.00;;;;;;;7.40;66.18;98488.75;4903294;29;20195;-80
2022/01/04 03:54:52;;;;;;;2.47;1.73;;;;;;;7.48;65.07;98503.59;4953449;23;20200;-81
2022/01/04 03:57:46;;;;;;;2.63;1.93;;;;;;;7.44;65.74;98486.44;4957133;29;20224;-80
2022/01/04 04:00:16;;;;;;;2.83;2.10;;;;;;;7.32;65.07;98475.75;4954151;29;20288;-80
2022/01/04 04:02:45;;;;;;;1.97;1.70;;;;;;;7.37;65.77;98472.41;4955775;29;20237;-80
2022/01/04 04:05:13;;;;;;;2.23;1.97;;;;;;;7.39;65.18;98479.13;4973156;29;20295;-80
2022/01/04 04:07:42;;;;;;;1.77;1.57;;;;;;;7.35;65.71;98466.50;4957963;29;20237;-80
2022/01/04 04:10:11;;;;;;;2.10;1.60;;;;;;;7.34;65.15;98460.34;4958629;23;20328;-80
2022/01/04 04:12:41;;;;;;;2.83;1.80;;;;;;;7.30;65.97;98451.19;4951748;29;20232;-80
2022/01/04 04:15:14;;;;;;;2.43;1.63;;;;;;;7.28;65.14;98452.47;4955007;23;20249;-80
2022/01/04 04:17:49;;;;;;;3.43;2.10;;;;;;;7.31;65.77;98455.47;4939535;29;20214;-80
2022/01/04 04:20:16;;;;;;;2.40;1.90;;;;;;;7.35;66.07;98450.50;4919474;29;20209;-80
2022/01/04 04:22:46;;;;;;;2.70;1.80;;;;;;;7.34;66.54;98463.00;4921411;23;20233;-80
2022/01/04 04:25:25;;;;;;;2.57;1.90;;;;;;;7.35;66.10;98466.50;4936969;29;20204;-80
2022/01/04 04:27:52;;;;;;;4.37;2.13;;;;;;;7.24;66.68;98457.41;4951332;29;20229;-80
2022/01/04 04:30:22;;;;;;;2.37;2.17;;;;;;;7.35;66.63;98475.28;4951641;29;20229;-80
2022/01/04 04:32:55;;;;;;;2.73;2.00;;;;;;;7.36;66.19;98474.25;4973877;23;20237;-80
2022/01/04 04:35:23;;;;;;;3.90;2.23;;;;;;;7.31;65.56;98458.16;4974394;29;20213;-80
2022/01/04 04:37:50;;;;;;;3.83;2.43;;;;;;;7.28;66.33;98457.78;4969048;29;20290;-80
2022/01/04 04:40:18;;;;;;;2.40;1.90;;;;;;;7.24;66.67;98436.09;4956380;29;20217;-80
2022/01/04 04:42:49;;;;;;;2.27;1.87;;;;;;;7.24;66.87;98441.41;4962723;29;20236;-80
2022/01/04 04:45:16;;;;;;;4.27;2.37;;;;;;;7.22;67.58;98438.19;4973072;29;20175;-80
2022/01/04 04:47:53;;;;;;;3.10;2.40;;;;;;;7.18;67.58;98433.53;4954307;29;20362;-80
2022/01/04 04:50:20;;;;;;;2.87;2.20;;;;;;;7.13;67.09;98431.56;4922429;29;20255;-80
2022/01/04 04:52:51;;;;;;;3.63;2.20;;;;;;;7.09;68.02;98412.53;4940599;29;20316;-80
2022/01/04 04:55:24;;;;;;;3.47;2.40;;;;;;;7.12;67.86;98421.94;4956472;29;20584;-80
2022/01/04 04:57:53;;;;;;;3.53;2.50;;;;;;;7.14;68.74;98419.84;4970632;29;20282;-80
2022/01/04 05:00:22;;;;;;;3.47;2.90;;;;;;;7.04;67.98;98400.97;4969204;29;20225;-80
2022/01/04 05:02:49;;;;;;;4.07;2.53;;;;;;;7.02;69.03;98403.84;4969520;29;20217;-80
2022/01/04 05:05:16;;;;;;;5.27;2.87;;;;;;;7.07;68.72;98413.81;4938454;29;20293;-80
2022/01/04 05:07:44;;;;;;;5.23;3.40;;;;;;;7.08;69.00;98413.59;4952490;29;20248;-80
2022/01/04 05:10:12;;;;;;;5.23;3.73;;;;;;;7.15;68.38;98408.16;4967127;29;20258;-80
2022/01/04 05:12:43;;;;;;;5.27;3.63;;;;;;;7.13;68.18;98409.44;4938075;29;20200;-79
2022/01/04 05:15:14;;;;;;;6.77;4.50;;;;;;;7.09;68.54;98395.75;4962574;23;20239;-80
2022/01/04 05:17:40;;;;;;;5.30;4.40;;;;;;;6.99;68.42;98390.16;4938228;29;20232;-80
2022/01/04 05:20:13;;;;;;;6.97;4.70;;;;;;;7.00;68.53;98402.41;4977152;23;20237;-79
2022/01/04 05:22:41;;;;;;;8.23;6.10;;;;;;;6.96;68.33;98401.25;4954432;29;20177;-80
2022/01/04 05:25:14;;;;;;;9.90;6.97;;;;;;;7.05;69.14;98407.88;4970207;29;20335;-80
2022/01/04 05:27:40;;;;;;;9.10;6.40;;;;;;;7.00;69.40;98394.44;4955809;29;20201;-80
2022/01/04 05:30:10;;;;;;;24.67;15.63;;;;;;;7.00;69.51;98386.44;4948885;23;20249;-80
2022/01/04 05:32:40;;;;;;;24.63;18.73;;;;;;;6.99;69.82;98380.34;4967958;28;20229;-80
2022/01/04 05:35:08;;;;;;;10.27;8.87;;;;;;;7.07;69.40;98385.34;4954435;23;20221;-81
2022/01/04 05:37:36;;;;;;;10.67;7.73;;;;;;;7.06;70.01;98389.03;4937544;29;20229;-80
2022/01/04 05:40:08;;;;;;;9.40;7.93;;;;;;;7.01;71.27;98402.19;4966474;23;20232;-81
2022/01/04 05:42:39;;;;;;;10.60;9.00;;;;;;;6.99;71.06;98387.50;4953048;23;20272;-80
2022/01/04 05:45:11;;;;;;;12.00;10.77;;;;;;;6.97;72.17;98374.41;4935997;29;20633;-80
2022/01/04 05:47:39;;;;;;;13.33;11.07;;;;;;;7.01;72.18;98380.09;4953714;29;20672;-81
2022/01/04 05:50:30;;;;;;;11.63;10.43;;;;;;;7.02;72.23;98369.22;4961218;23;20225;-80
2022/01/04 05:53:01;;;;;;;12.67;11.37;;;;;;;6.99;72.39;98363.53;4953940;29;20229;-80
2022/01/04 05:55:30;;;;;;;13.07;11.33;;;;;;;6.94;73.30;98368.72;4954817;29;20205;-80
2022/01/04 05:58:01;;;;;;;12.60;10.57;;;;;;;6.88;73.23;98351.81;4937316;29;20209;-80
2022/01/04 06:00:29;;;;;;;13.00;11.70;;;;;;;6.96;73.01;98362.13;4936033;29;20209;-79
2022/01/04 06:03:04;;;;;;;13.40;12.00;;;;;;;6.93;73.47;98372.44;4953953;29;20198;-80
2022/01/04 06:05:36;;;;;;;14.23;12.67;;;;;;;6.90;73.01;98368.38;4959891;23;20261;-80
2022/01/04 06:08:07;;;;;;;15.77;14.07;;;;;;;6.86;73.33;98353.88;4938856;23;20226;-80
2022/01/04 06:10:39;;;;;;;14.23;12.57;;;;;;;6.84;73.44;98339.19;4938772;29;20198;-80
2022/01/04 06:16:04;;;;;;;15.33;13.73;;;;;;;6.75;74.07;98349.34;4939867;29;20665;-80
2022/01/04 06:18:51;;;;;;;15.37;13.17;;;;;;;6.73;74.23;98346.06;4941105;29;20166;-80
2022/01/04 06:21:19;;;;;;;15.57;13.60;;;;;;;6.63;74.83;98338.63;4937286;29;20244;-80
2022/01/04 06:23:46;;;;;;;14.23;12.70;;;;;;;6.55;74.80;98320.31;4937533;29;20237;-80
2022/01/04 06:26:15;;;;;;;15.63;13.93;;;;;;;6.52;76.01;98323.44;4938222;29;20245;-81
2022/01/04 06:28:44;;;;;;;15.63;13.80;;;;;;;6.59;75.27;98349.94;4938819;29;20503;-80
2022/01/04 06:31:14;;;;;;;15.83;14.10;;;;;;;6.55;75.68;98330.16;4954262;29;20237;-80
2022/01/04 06:33:44;;;;;;;15.83;14.20;;;;;;;6.54;75.85;98333.84;4954030;29;20220;-80
2022/01/04 06:36:13;;;;;;;15.43;13.80;;;;;;;6.56;76.01;98327.28;4937732;29;20242;-80
2022/01/04 06:38:55;;;;;;;16.37;14.57;;;;;;;6.61;75.81;98313.28;4954241;29;20297;-81
2022/01/04 06:41:22;;;;;;;17.00;15.10;;;;;;;6.62;75.65;98305.06;4937774;29;20210;-81
2022/01/04 06:43:53;;;;;;;19.73;16.83;;;;;;;6.60;75.36;98306.34;4952602;23;20237;-81
2022/01/04 06:46:25;;;;;;;18.97;17.00;;;;;;;6.65;75.76;98298.50;4952837;29;20253;-81
2022/01/04 06:49:07;;;;;;;20.90;17.43;;;;;;;6.60;76.14;98282.38;4937996;29;20638;-80
2022/01/04 06:51:41;;;;;;;19.33;17.23;;;;;;;6.58;76.24;98282.59;4952449;29;20221;-81
2022/01/04 06:54:15;;;;;;;19.00;17.00;;;;;;;6.68;76.51;98291.88;4921281;29;20603;-81
2022/01/04 06:56:45;;;;;;;18.30;16.40;;;;;;;6.67;75.64;98285.78;4952228;29;20182;-81
2022/01/04 06:59:13;;;;;;;20.53;17.47;;;;;;;6.65;75.79;98277.19;4953721;23;20236;-81
2022/01/04 07:01:48;;;;;;;18.23;16.37;;;;;;;6.67;75.62;98272.47;4939463;23;20323;-81
2022/01/04 07:04:20;;;;;;;20.30;17.30;;;;;;;6.80;75.43;98261.63;4970270;23;20260;-81
2022/01/04 07:06:47;;;;;;;19.30;17.10;;;;;;;6.77;75.72;98264.72;4957810;29;20256;-81
2022/01/04 07:09:14;;;;;;;19.30;17.30;;;;;;;6.69;76.05;98253.59;4941923;29;20244;-81
2022/01/04 07:11:46;;;;;;;19.63;17.33;;;;;;;6.68;76.23;98260.75;4964839;23;20729;-80
2022/01/04 07:14:13;;;;;;;19.60;17.43;;;;;;;6.78;75.79;98277.00;4936933;29;20296;-81
2022/01/04 07:16:45;;;;;;;21.17;18.17;;;;;;;6.84;75.87;98283.28;4927454;23;20242;-81
2022/01/04 07:19:24;;;;;;;19.63;17.47;;;;;;;6.86;76.36;98281.19;4935269;29;20250;-81
2022/01/04 07:21:53;;;;;;;21.40;18.33;;;;;;;6.82;76.20;98280.00;4942915;23;20218;-81
2022/01/04 07:24:23;;;;;;;19.97;17.83;;;;;;;6.87;76.20;98286.28;4945413;23;20238;-81
2022/01/04 07:26:50;;;;;;;20.63;18.53;;;;;;;6.91;75.92;98268.00;4948554;29;20260;-81
2022/01/04 07:29:23;;;;;;;20.87;18.63;;;;;;;6.92;75.38;98257.13;4968883;28;20200;-81
2022/01/04 07:31:55;;;;;;;20.13;17.83;;;;;;;6.93;75.50;98255.28;4940618;23;20254;-80
2022/01/04 07:34:23;;;;;;;19.93;17.47;;;;;;;6.94;76.29;98257.72;4931221;29;20240;-80
2022/01/04 07:36:50;;;;;;;23.27;18.43;;;;;;;6.93;75.82;98252.59;4955039;23;20235;-81
2022/01/04 07:39:28;;;;;;;20.50;18.40;;;;;;;6.95;75.83;98267.31;4977149;23;21336;-80
2022/01/04 07:41:57;;;;;;;21.17;18.87;;;;;;;6.93;75.67;98260.59;4957632;23;20261;-80
2022/01/04 07:44:31;;;;;;;20.67;18.47;;;;;;;6.99;75.90;98259.69;4955721;29;20221;-81
2022/01/04 07:47:48;;;;;;;20.30;18.10;;;;;;;7.05;75.42;98261.41;4981744;23;20247;-81
2022/01/04 07:50:16;;;;;;;21.40;18.97;;;;;;;6.98;75.93;98244.75;4968535;23;20292;-80
2022/01/04 07:52:49;;;;;;;21.37;19.07;;;;;;;7.08;76.39;98247.66;4936535;29;20309;-80
2022/01/04 07:55:19;;;;;;;20.17;18.07;;;;;;;7.06;76.05;98241.72;4938343;29;20233;-80
2022/01/04 07:57:49;;;;;;;20.40;18.23;;;;;;;7.05;75.81;98237.44;4953273;23;20217;-81
2022/01/04 08:00:20;;;;;;;22.67;19.03;;;;;;;7.06;76.02;98225.75;4962158;23;20316;-81
2022/01/04 08:02:49;;;;;;;20.63;18.30;;;;;;;7.13;75.49;98234.47;4941491;29;20187;-80
2022/01/04 08:05:17;;;;;;;21.63;18.73;;;;;;;7.19;75.40;98220.19;4942629;23;20237;-80
2022/01/04 08:07:46;;;;;;;20.47;18.37;;;;;;;7.15;76.01;98205.72;4954134;23;20243;-80
2022/01/04 08:10:21;;;;;;;22.93;18.13;;;;;;;7.18;75.75;98204.47;4950739;23;20268;-81
2022/01/04 08:12:50;;;;;;;20.70;18.30;;;;;;;7.23;75.96;98186.72;4945802;23;20328;-81
2022/01/04 08:15:23;;;;;;;19.60;17.47;;;;;;;7.27;75.48;98171.09;4917415;29;20226;-81
2022/01/04 08:17:54;;;;;;;21.13;18.37;;;;;;;7.34;75.58;98187.75;4933654;29;20190;-81
2022/01/04 08:20:21;;;;;;;20.27;18.20;;;;;;;7.30;75.81;98192.75;4935154;23;20593;-80
2022/01/04 08:22:51;;;;;;;20.13;18.07;;;;;;;7.45;75.31;98198.41;4952683;29;20235;-81
2022/01/04 08:25:39;;;;;;;27.77;23.43;;;;;;;7.63;74.83;98186.78;4952845;29;20202;-81
2022/01/04 08:28:05;;;;;;;27.83;24.53;;;;;;;7.74;74.27;98185.97;4954440;29;20298;-81
2022/01/04 08:30:39;;;;;;;26.13;23.40;;;;;;;7.69;74.66;98151.19;4952805;29;20220;-81
2022/01/04 08:33:13;;;;;;;24.57;21.47;;;;;;;7.82;74.02;98150.91;4937284;29;20227;-81
2022/01/04 08:35:43;;;;;;;20.07;17.93;;;;;;;8.00;73.15;98165.09;4953700;29;20229;-80
2022/01/04 08:38:16;;;;;;;19.57;17.47;;;;;;;8.04;73.17;98148.38;4954644;29;20169;-81
2022/01/04 08:40:43;;;;;;;19.57;17.50;;;;;;;8.01;72.68;98146.22;4964170;29;20244;-81
2022/01/04 08:43:19;;;;;;;19.30;17.20;;;;;;;8.20;72.06;98150.28;4976422;23;20273;-80
2022/01/04 08:45:49;;;;;;;18.43;16.53;;;;;;;8.38;71.91;98158.13;4950150;23;20235;-81
2022/01/04 08:48:30;;;;;;;19.67;17.67;;;;;;;8.33;71.87;98162.56;4953772;29;20201;-80
2022/01/04 08:51:00;;;;;;;19.67;17.57;;;;;;;8.35;71.49;98181.81;4949742;23;20237;-80
2022/01/04 08:53:50;;;;;;;19.50;17.40;;;;;;;8.25;71.86;98192.25;4947938;23;20273;-81
2022/01/04 08:56:24;;;;;;;20.10;18.00;;;;;;;8.20;72.11;98168.97;4934997;23;20208;-80
2022/01/04 08:58:50;;;;;;;20.80;18.70;;;;;;;8.15;72.58;98168.88;4936765;23;20209;-80
2022/01/04 09:01:18;;;;;;;21.60;18.60;;;;;;;8.13;72.73;98148.81;4932016;23;20241;-80
2022/01/04 09:03:48;;;;;;;20.37;17.90;;;;;;;8.22;72.86;98166.03;4933795;23;20229;-80
2022/01/04 09:06:15;;;;;;;23.40;20.13;;;;;;;8.29;72.42;98135.53;4948151;23;20267;-80
2022/01/04 09:08:43;;;;;;;24.70;20.47;;;;;;;8.46;72.08;98142.75;4929322;29;20237;-81
2022/01/04 09:11:31;;;;;;;21.80;18.90;;;;;;;8.64;72.58;98158.53;4950262;23;20242;-80
2022/01/04 09:14:40;;;;;;;20.50;18.30;;;;;;;8.78;71.95;98149.13;4939405;29;20701;-80
2022/01/04 09:20:17;;;;;;;20.33;18.33;;;;;;;9.02;70.53;98147.09;4960875;23;20529;-80
2022/01/04 09:22:52;;;;;;;19.93;17.83;;;;;;;9.12;70.25;98148.06;4957287;29;20244;-80
2022/01/04 09:25:22;;;;;;;19.07;17.13;;;;;;;9.26;69.64;98148.50;4956463;29;20240;-80
2022/01/04 09:27:51;;;;;;;19.33;17.33;;;;;;;9.19;69.65;98148.66;4967346;23;20237;-80
2022/01/04 09:30:39;;;;;;;20.20;17.97;;;;;;;9.37;69.16;98147.59;4946552;23;20537;-80
2022/01/04 09:33:31;;;;;;;19.73;17.73;;;;;;;9.42;69.50;98122.78;4939465;29;20221;-80
2022/01/04 09:36:50;;;;;;;19.30;17.33;;;;;;;9.53;68.84;98125.31;4955863;29;20221;-80
2022/01/04 09:39:21;;;;;;;20.50;18.33;;;;;;;9.60;68.99;98123.28;4953098;29;20213;-80
2022/01/04 09:41:55;;;;;;;22.70;18.53;;;;;;;9.65;68.54;98111.84;5016498;23;20250;-80
2022/01/04 09:44:49;;;;;;;20.77;18.57;;;;;;;9.58;68.38;98116.56;4969390;23;20232;-80
2022/01/04 09:47:16;;;;;;;19.70;17.80;;;;;;;9.45;68.82;98122.28;4973438;29;20185;-80
2022/01/04 09:49:51;;;;;;;20.23;17.97;;;;;;;9.57;68.57;98064.94;4957773;23;20233;-81
2022/01/04 09:52:25;;;;;;;21.27;18.97;;;;;;;9.57;69.11;98104.25;4936033;29;20252;-80
2022/01/04 09:54:57;;;;;;;20.13;18.03;;;;;;;9.44;69.47;98105.44;4938831;29;20189;-80
2022/01/04 09:57:28;;;;;;;18.87;16.60;;;;;;;9.44;69.20;98078.72;4901256;29;20213;-79
2022/01/04 09:59:55;;;;;;;19.63;17.07;;;;;;;9.21;69.29;98062.94;4951340;23;20237;-80
2022/01/04 10:02:31;;;;;;;20.43;18.33;;;;;;;9.20;69.87;98078.16;4937402;29;20239;-80
2022/01/04 10:05:22;;;;;;;20.67;18.50;;;;;;;9.26;70.13;98068.34;4948210;29;20650;-80
2022/01/04 10:08:14;;;;;;;20.87;17.83;;;;;;;9.18;70.41;98077.59;4943834;29;20192;-80
2022/01/04 10:10:43;;;;;;;27.70;22.87;;;;;;;9.10;70.53;98059.31;4955656;29;20244;-80
2022/01/04 10:13:15;;;;;;;21.33;19.03;;;;;;;9.12;70.33;98067.91;4954637;29;20264;-80
2022/01/04 10:15:47;;;;;;;20.50;18.40;;;;;;;9.10;70.15;98071.84;4931901;29;20203;-80
2022/01/04 10:18:38;;;;;;;19.43;17.37;;;;;;;9.14;70.28;98070.34;4933708;29;20248;-80
2022/01/04 10:21:34;;;;;;;18.77;16.77;;;;;;;9.18;70.26;98069.59;4937528;29;20309;-80
2022/01/04 10:24:08;;;;;;;19.03;17.07;;;;;;;9.07;70.81;98056.34;4988580;23;20228;-80
2022/01/04 10:26:37;;;;;;;18.90;16.90;;;;;;;9.14;69.91;98046.28;4957866;29;20239;-80
2022/01/04 10:29:23;;;;;;;19.53;17.53;;;;;;;9.11;70.52;98036.88;4963366;29;20209;-80
2022/01/04 10:32:17;;;;;;;18.17;16.30;;;;;;;9.09;70.42;98032.84;4944347;23;20354;-80
2022/01/04 10:34:50;;;;;;;16.33;14.70;;;;;;;9.13;69.91;98024.09;4927958;23;20237;-80
2022/01/04 10:37:39;;;;;;;16.73;13.97;;;;;;;9.20;69.58;98011.34;4930311;29;20202;-80
2022/01/04 10:40:13;;;;;;;16.23;14.53;;;;;;;9.21;69.37;98014.81;4918480;29;20201;-80
2022/01/04 10:42:40;;;;;;;15.07;13.57;;;;;;;9.23;69.50;97996.69;4929214;23;20286;-80
2022/01/04 10:45:26;;;;;;;15.60;13.80;;;;;;;9.46;68.77;98003.63;4899912;29;20226;-80
2022/01/04 10:47:58;;;;;;;16.63;14.93;;;;;;;9.60;68.05;98000.28;4920904;29;20242;-80
2022/01/04 10:50:34;;;;;;;14.50;12.90;;;;;;;9.62;67.96;97992.00;4943059;23;20231;-80
2022/01/04 10:53:04;;;;;;;14.70;12.70;;;;;;;9.70;67.45;97988.88;4940552;23;20232;-81
2022/01/04 10:55:35;;;;;;;14.00;12.37;;;;;;;9.75;67.17;97972.91;4940383;23;20233;-80
2022/01/04 10:58:04;;;;;;;15.23;13.17;;;;;;;9.85;66.46;97958.78;4917879;29;20221;-80
2022/01/04 11:00:32;;;;;;;15.17;13.53;;;;;;;9.81;66.29;97960.34;4934667;29;20234;-81
2022/01/04 11:03:03;;;;;;;13.33;12.00;;;;;;;9.79;66.01;97962.50;4920085;29;20234;-80
2022/01/04 11:05:41;;;;;;;14.83;13.03;;;;;;;9.68;66.61;97948.22;4916230;29;20238;-80
2022/01/04 11:08:34;;;;;;;15.87;13.23;;;;;;;9.67;66.79;97949.28;4932528;29;20229;-80
2022/01/04 11:11:03;;;;;;;14.70;12.80;;;;;;;9.66;67.19;97950.31;4935499;29;20198;-80
2022/01/04 11:13:32;;;;;;;13.90;12.50;;;;;;;9.63;67.80;97954.31;4956397;23;20230;-80
2022/01/04 11:16:07;;;;;;;16.50;13.67;;;;;;;9.69;67.54;97947.97;4916849;29;20221;-80
2022/01/04 11:18:41;;;;;;;15.40;13.80;;;;;;;9.68;67.55;97935.66;4934280;29;20214;-80
2022/01/04 11:21:18;;;;;;;16.03;14.27;;;;;;;9.76;67.16;97931.69;4935943;29;20186;-80
2022/01/04 11:23:46;;;;;;;16.73;12.83;;;;;;;9.76;67.42;97917.50;4934078;29;20230;-80
2022/01/04 11:26:13;;;;;;;13.13;11.83;;;;;;;9.79;67.59;97925.03;4916450;29;20591;-80
2022/01/04 11:28:43;;;;;;;14.70;12.80;;;;;;;9.78;67.82;97910.06;4901163;29;20238;-80
2022/01/04 11:31:30;;;;;;;13.83;12.17;;;;;;;9.80;67.65;97913.28;4930412;29;20317;-80
2022/01/04 11:36:27;;;;;;;12.30;10.97;;;;;;;9.93;67.10;97899.47;4937766;23;20254;-81
2022/01/04 11:38:56;;;;;;;12.07;10.13;;;;;;;9.98;66.49;97892.28;4945930;29;20599;-80
2022/01/04 11:41:42;;;;;;;13.30;11.10;;;;;;;9.95;66.41;97886.63;4951393;29;20585;-81
2022/01/04 11:44:24;;;;;;;11.53;10.03;;;;;;;9.97;65.47;97895.22;4955420;23;20252;-81
2022/01/04 11:47:18;;;;;;;11.33;10.13;;;;;;;10.02;65.32;97884.56;4962924;28;20256;-80
2022/01/04 11:50:24;;;;;;;11.30;10.00;;;;;;;10.07;65.00;97879.22;4945910;29;20679;-80
2022/01/04 11:52:55;;;;;;;11.20;9.30;;;;;;;10.19;64.05;97865.66;4956944;29;20217;-80
2022/01/04 11:55:33;;;;;;;10.77;9.40;;;;;;;10.24;63.51;97863.03;4954479;29;20257;-80
2022/01/04 11:58:14;;;;;;;11.20;9.50;;;;;;;10.34;62.89;97858.53;4944333;23;20240;-80
2022/01/04 12:01:07;;;;;;;10.93;9.40;;;;;;;10.40;63.05;97856.69;4940384;29;20652;-80
2022/01/04 12:03:54;;;;;;;11.33;9.87;;;;;;;10.40;63.02;97837.94;4909829;29;20234;-80
2022/01/04 12:06:34;;;;;;;11.60;10.23;;;;;;;10.37;62.49;97846.50;4928813;29;20227;-80
2022/01/04 12:09:24;;;;;;;13.27;11.10;;;;;;;10.25;62.76;97864.63;4933784;29;20226;-80